Nissho Maru — JD2650 — position and weather

sailwx.info

Track history (hours):
 
Tides and Currents Weather Stations Pressure Air Temp Water Temp Dewpoint Dewpoint Depression Visibility Wind Speed Wind Dir Waves Ship Positions

Nissho Maru

Last reported at 2018-Jun-21 09:07 UTC. Time now 2018-Jun-22 17:08 UTC.
Position N 35°08' E 139°43'.

Length 75 m; draft 4.5 m.

Type: Cargo ship. MMSI: 431000572.

Date/timePositionNaut miles runAvg speedWind from/ knotsBaromVisibWave heightAir tempDewpointWater temp
2018-Jun-21 09:07N 35°08' E 139°43'212.2
2018-Jun-21 08:57N 35°09' E 139°44'511.4
2018-Jun-21 08:31N 35°14' E 139°46'612.5
2018-Jun-21 08:00N 35°20' E 139°42'611.3
2018-Jun-21 07:30N 35°25' E 139°44'8 0.3
2018-Jun-20 03:50N 35°22' E 139°54'1 2.2
2018-Jun-20 03:30N 35°22' E 139°53'4 8.2
2018-Jun-20 03:00N 35°23' E 139°48'3 5.5
2018-Jun-20 02:28N 35°23' E 139°44'0 0.0
2018-Jun-20 01:58N 35°23' E 139°44'0 0.0
2018-Jun-20 01:25N 35°23' E 139°44'0 0.0
2018-Jun-20 00:55N 35°23' E 139°44'0 0.0
2018-Jun-20 00:25N 35°23' E 139°44'0 0.0
2018-Jun-19 23:58N 35°23' E 139°44'0 0.1
2018-Jun-19 23:28N 35°23' E 139°45'0 0.0
2018-Jun-19 22:58N 35°23' E 139°45'0 0.0
2018-Jun-19 22:28N 35°23' E 139°45'0 0.0
2018-Jun-19 21:58N 35°23' E 139°45'1 1.2
2018-Jun-19 21:30N 35°22' E 139°44'510.9
2018-Jun-19 21:00N 35°17' E 139°45'24611.0
2018-Jun-18 22:31N 33°41' E 135°10'111.4
2018-Jun-18 22:26N 33°42' E 135°09'510.8
2018-Jun-18 21:59N 33°45' E 135°04'510.5
2018-Jun-18 21:30N 33°47' E 134°59'611.7
2018-Jun-18 20:57N 33°51' E 134°52'511.9
2018-Jun-18 20:30N 33°53' E 134°46'3 0.1
2018-Jun-16 21:19N 33°53' E 134°43'3 9.7
2018-Jun-16 21:00N 33°55' E 134°45'612.5
2018-Jun-16 20:29N 34°02' E 134°44'812.6
2018-Jun-16 19:53N 34°09' E 134°42'513.5
2018-Jun-16 19:30N 34°14' E 134°39'  
Track history (hours):
 
Tides and Currents Weather Stations Pressure Air Temp Water Temp Dewpoint Dewpoint Depression Visibility Wind Speed Wind Dir Waves Ship Positions

Nissho Maru

Last reported at 2018-Jun-21 09:07 UTC. Time now 2018-Jun-22 17:08 UTC.
Position N 35°08' E 139°43'.

Length 75 m; draft 4.5 m.

Type: Cargo ship. MMSI: 431000572.

Date/timePositionNaut miles runAvg speedWind from/ knotsBaromVisibWave heightAir tempDewpointWater temp
2018-Jun-21 09:07N 35°08' E 139°43'212.2
2018-Jun-21 08:57N 35°09' E 139°44'511.4
2018-Jun-21 08:31N 35°14' E 139°46'612.5
2018-Jun-21 08:00N 35°20' E 139°42'611.3
2018-Jun-21 07:30N 35°25' E 139°44'8 0.3
2018-Jun-20 03:50N 35°22' E 139°54'1 2.2
2018-Jun-20 03:30N 35°22' E 139°53'4 8.2
2018-Jun-20 03:00N 35°23' E 139°48'3 5.5
2018-Jun-20 02:28N 35°23' E 139°44'0 0.0
2018-Jun-20 01:58N 35°23' E 139°44'0 0.0
2018-Jun-20 01:25N 35°23' E 139°44'0 0.0
2018-Jun-20 00:55N 35°23' E 139°44'0 0.0
2018-Jun-20 00:25N 35°23' E 139°44'0 0.0
2018-Jun-19 23:58N 35°23' E 139°44'0 0.1
2018-Jun-19 23:28N 35°23' E 139°45'0 0.0
2018-Jun-19 22:58N 35°23' E 139°45'0 0.0
2018-Jun-19 22:28N 35°23' E 139°45'0 0.0
2018-Jun-19 21:58N 35°23' E 139°45'1 1.2
2018-Jun-19 21:30N 35°22' E 139°44'510.9
2018-Jun-19 21:00N 35°17' E 139°45'24611.0
2018-Jun-18 22:31N 33°41' E 135°10'111.4
2018-Jun-18 22:26N 33°42' E 135°09'510.8
2018-Jun-18 21:59N 33°45' E 135°04'510.5
2018-Jun-18 21:30N 33°47' E 134°59'611.7
2018-Jun-18 20:57N 33°51' E 134°52'511.9
2018-Jun-18 20:30N 33°53' E 134°46'3 0.1
2018-Jun-16 21:19N 33°53' E 134°43'3 9.7
2018-Jun-16 21:00N 33°55' E 134°45'612.5
2018-Jun-16 20:29N 34°02' E 134°44'812.6
2018-Jun-16 19:53N 34°09' E 134°42'513.5
2018-Jun-16 19:30N 34°14' E 134°39'  

Dump ship's entire track history